Terminal Aerodrome Forecast
Issued by NWS

Home | Current Version | Previous Version | Text Only | Print | Product List | Glossary Off
Versions: 1 2 3 4 5 6 7 8 9 10 11 12 13 14 15 16 17 18 19 20 21 22 23

370
FTUS43 KBIS 010525
TAFJMS
TAF
KJMS 010525Z 0106/0206 34011KT P6SM OVC011
     FM010800 34009KT P6SM OVC008
     FM011500 34008KT P6SM BKN015 OVC020
     FM020000 36004KT P6SM OVC015=

USA.gov is the U.S. government's official web portal to all federal, state and local government web resources and services.